Hayden, CO (81639)

8:33 PM MDT on August 21, 2014 (GMT -0600)
Yampa Valley | Change Station
CLOSE
Current Station
Airport
Location: Hayden,
Elevation: 6601 ft
Nearby Weather Stations

Elev 6601 ft 40.48 °N, 107.22 °W | Updated 18 minutes ago

Clear
Clear
63 °F
Feels Like 63 °F
N
14
Wind Variable Wind from North
Gusts 20 mph

Today
High -- | Low -- °F
--% Chance of Precip.
Yesterday
High -- | Low -- °F
Precip. -- in
6:25 AM 7:57 PM
Waning Crescent, 11% visible
Pressure 30.22 in
Visibility 10.0 miles
Clouds Clear
Dew Point 45 °F
Humidity 52%
Rainfall 0.00 in
Snow Depth Not available.
UV 0 out of 12
Pollen 8.90 out of 12
Air Quality Not available.
Flu Activity Not available.
METAR KHDN 220215Z AUTO 01012G17KT 10SM CLR 17/07 A3022 RMK AO1

More Conditions Fewer Conditions

Pressure 30.22 in
Visibility 10.0 miles
Clouds Clear
Dew Point 45 °F
Humidity 52%
Rainfall 0.00 in
Snow Depth Not available.
UV 0 out of 12
Pollen 8.90 out of 12
Air Quality Not available.
Flu Activity Not available.
METAR KHDN 220215Z AUTO 01012G17KT 10SM CLR 17/07 A3022 RMK AO1

More Conditions Fewer Conditions

10-Day Weather Forecast

Almanac

Astronomy

Aug. 21, 2014 Rise Set
Actual Time 6:25 AM MDT 7:57 PM MDT
Civil Twilight 5:56 AM MDT 8:26 PM MDT
Nautical Twilight 5:22 AM MDT 9:01 PM MDT
Astronomical Twilight 4:45 AM MDT 9:37 PM MDT
Moon 2:58 AM MDT (8/21) 5:29 PM MDT (8/21)
Length of Visible Light 14h 29m
Length of Day
13h 32m
Tomorrow will be 2m 28s shorter.
Waning Crescent, 11% of the Moon is Illuminated
Today
Waning Crescent
Aug 25
New
Sep 2
First Quarter
Sep 8
Full
Sep 15
Last Quarter

Today's Extremes

State Highs State Lows

Community

WunderPhotos

Upload Photos

1,746,109 photos uploaded!

WunderBlogs® & News

Nearby

Snow Depth

Station Depth Elevation
Dry Lake 0 in 8400 ft
Trapper Lake 0 in 9700 ft
Zirkel 0 in 9340 ft
Bison Lake 0 in 10880 ft
Willow Creek Pass 0 in 9540 ft

Earthquake Activity

City Distance Mag. Time & Date
No recent earthquake activity has been reported nearby.
Minimum magnitude displayed is 2.5.

Coastal Water Temperatures

Place Temperature
No Stations Reporting

Nearby Weather Stations